createdAt,value
2022-08-17T00:00:34.460Z,99.90
2022-08-17T00:03:05.835Z,99.90
2022-08-17T00:05:35.743Z,99.90
2022-08-17T00:08:04.201Z,99.90
2022-08-17T00:10:35.001Z,99.90
2022-08-17T00:13:07.202Z,99.90
2022-08-17T00:15:35.587Z,99.90
2022-08-17T00:18:03.682Z,99.90
2022-08-17T00:20:51.828Z,99.90
2022-08-17T00:23:20.087Z,99.90
2022-08-17T00:25:50.457Z,99.90
2022-08-17T00:28:18.868Z,99.90
2022-08-17T00:30:52.935Z,99.90
2022-08-17T00:33:24.811Z,99.90
2022-08-17T00:35:53.969Z,99.90
2022-08-17T00:38:22.818Z,99.90
2022-08-17T00:40:55.852Z,99.90
2022-08-17T00:43:28.757Z,99.90
2022-08-17T00:45:57.569Z,99.90
2022-08-17T00:48:29.409Z,99.90
2022-08-17T00:51:00.554Z,99.90
2022-08-17T00:53:30.226Z,99.90
2022-08-17T00:56:01.470Z,99.90
2022-08-17T00:58:36.264Z,99.90
2022-08-17T01:01:05.701Z,99.90
2022-08-17T01:03:34.409Z,99.90
2022-08-17T01:06:04.542Z,99.90
2022-08-17T01:08:33.309Z,99.90
2022-08-17T01:11:05.459Z,99.90
2022-08-17T01:13:40.640Z,99.90
2022-08-17T01:16:12.702Z,99.90
2022-08-17T01:18:42.279Z,99.90
2022-08-17T01:21:12.210Z,99.90
2022-08-17T01:23:43.295Z,99.90
2022-08-17T01:26:11.373Z,99.90
2022-08-17T01:28:53.839Z,99.90
2022-08-17T01:31:25.609Z,99.90
2022-08-17T01:33:53.923Z,99.90
2022-08-17T01:36:22.081Z,99.90
2022-08-17T01:38:51.600Z,99.90
2022-08-17T01:41:20.546Z,99.90
2022-08-17T01:43:50.419Z,99.90
2022-08-17T01:46:21.966Z,99.90
2022-08-17T01:48:51.670Z,99.90
2022-08-17T01:51:20.064Z,99.90
2022-08-17T01:53:49.617Z,99.90
2022-08-17T01:56:20.280Z,99.90
2022-08-17T01:58:48.870Z,99.90
2022-08-17T02:01:20.357Z,99.90
2022-08-17T02:03:59.219Z,99.90
2022-08-17T02:06:30.369Z,99.90
2022-08-17T02:09:02.290Z,99.90
2022-08-17T02:11:34.407Z,99.90
2022-08-17T02:14:04.034Z,99.90
2022-08-17T02:16:37.288Z,99.90
2022-08-17T02:19:07.881Z,99.90
2022-08-17T02:21:36.707Z,99.90
2022-08-17T02:24:06.359Z,99.90
2022-08-17T02:26:36.264Z,99.90
2022-08-17T02:29:05.285Z,99.90
2022-08-17T02:31:33.364Z,99.90
2022-08-17T02:34:03.850Z,99.90
2022-08-17T02:36:33.017Z,99.90
2022-08-17T02:39:01.663Z,99.90
2022-08-17T02:41:29.951Z,99.90
2022-08-17T02:44:00.303Z,99.90
2022-08-17T02:46:28.481Z,99.90
2022-08-17T02:48:57.220Z,99.90
2022-08-17T02:51:25.314Z,99.90
2022-08-17T02:53:53.567Z,99.90
2022-08-17T02:56:41.828Z,99.90
2022-08-17T02:59:11.662Z,99.90
2022-08-17T03:01:40.565Z,99.90
2022-08-17T03:04:08.837Z,99.90
2022-08-17T03:06:37.524Z,99.90
2022-08-17T03:09:06.018Z,99.90
2022-08-17T03:11:34.080Z,99.90
2022-08-17T03:14:02.230Z,99.90
2022-08-17T03:16:32.199Z,99.90
2022-08-17T03:19:01.699Z,99.90
2022-08-17T03:21:29.889Z,99.90
2022-08-17T03:23:58.395Z,99.90
2022-08-17T03:26:29.768Z,99.90
2022-08-17T03:28:59.161Z,99.90
2022-08-17T03:31:27.385Z,99.90
2022-08-17T03:33:57.662Z,99.90
2022-08-17T03:36:27.033Z,99.90
2022-08-17T03:38:55.161Z,99.90
2022-08-17T03:41:23.277Z,99.90
2022-08-17T03:43:51.439Z,99.90
2022-08-17T03:46:37.124Z,99.90
2022-08-17T03:49:25.378Z,99.90
2022-08-17T03:52:11.357Z,99.90
2022-08-17T03:54:57.697Z,99.90
2022-08-17T03:57:26.131Z,99.90
2022-08-17T03:59:54.331Z,99.90
2022-08-17T04:02:24.231Z,99.90
2022-08-17T04:04:54.290Z,99.90
2022-08-17T04:07:23.176Z,99.90
2022-08-17T04:09:51.559Z,99.90
2022-08-17T04:12:20.889Z,99.90
2022-08-17T04:14:52.854Z,99.90
2022-08-17T04:17:24.330Z,99.90
2022-08-17T04:19:54.880Z,99.90
2022-08-17T04:22:30.627Z,99.90
2022-08-17T04:25:02.676Z,99.90
2022-08-17T04:27:31.032Z,99.90
2022-08-17T04:29:59.848Z,99.90
2022-08-17T04:33:03.401Z,99.90
2022-08-17T04:35:20.445Z,99.90
2022-08-17T04:37:48.904Z,99.90
2022-08-17T04:40:34.908Z,99.90
2022-08-17T04:43:04.195Z,99.90
2022-08-17T04:45:32.702Z,99.90
2022-08-17T04:48:01.758Z,99.90
2022-08-17T04:50:31.466Z,99.90
2022-08-17T04:53:00.011Z,99.90
2022-08-17T04:55:28.728Z,99.90
2022-08-17T04:57:57.041Z,99.90
2022-08-17T05:00:26.022Z,99.90
2022-08-17T05:02:55.175Z,99.90
2022-08-17T05:05:24.440Z,99.90
2022-08-17T05:07:54.926Z,99.90
2022-08-17T05:10:23.511Z,99.90
2022-08-17T05:12:58.470Z,99.90
2022-08-17T05:15:26.720Z,99.90
2022-08-17T05:17:55.005Z,99.90
2022-08-17T05:20:24.408Z,99.90
2022-08-17T05:22:53.660Z,99.90
2022-08-17T05:25:25.776Z,99.90
2022-08-17T05:27:55.298Z,99.90
2022-08-17T05:30:24.579Z,99.90
2022-08-17T05:32:53.996Z,99.90
2022-08-17T05:35:22.528Z,99.90
2022-08-17T05:37:50.856Z,99.90
2022-08-17T05:40:20.156Z,99.90
2022-08-17T05:42:51.204Z,99.90
2022-08-17T05:45:32.136Z,99.90
2022-08-17T05:48:10.551Z,99.90
2022-08-17T05:50:47.437Z,99.90
2022-08-17T05:53:24.402Z,99.90
2022-08-17T05:55:57.686Z,99.90
2022-08-17T05:58:33.027Z,99.90
2022-08-17T06:01:04.755Z,99.90
2022-08-17T06:03:39.667Z,99.90
2022-08-17T06:06:16.309Z,99.90
2022-08-17T06:08:48.946Z,99.90
2022-08-17T06:11:22.779Z,99.90
2022-08-17T06:14:02.130Z,99.90
2022-08-17T06:16:36.756Z,99.90
2022-08-17T06:19:07.357Z,99.90
2022-08-17T06:21:37.097Z,99.90
2022-08-17T06:24:08.284Z,99.90
2022-08-17T06:26:43.061Z,99.90
2022-08-17T06:29:18.890Z,99.90
2022-08-17T06:31:47.565Z,99.90
2022-08-17T06:34:15.728Z,99.90
2022-08-17T06:36:49.821Z,99.90
2022-08-17T06:39:32.266Z,99.90
2022-08-17T06:42:05.643Z,99.90
2022-08-17T06:44:49.866Z,99.90
2022-08-17T06:47:28.465Z,99.90
2022-08-17T06:50:01.425Z,99.90
2022-08-17T06:52:46.551Z,99.90
2022-08-17T06:55:19.066Z,99.90
2022-08-17T06:57:48.328Z,99.90
2022-08-17T07:00:20.621Z,99.90
2022-08-17T07:02:52.680Z,99.90
2022-08-17T07:05:23.596Z,99.90
2022-08-17T07:08:04.380Z,99.90
2022-08-17T07:10:37.816Z,99.90
2022-08-17T07:13:25.619Z,99.90
2022-08-17T07:15:58.942Z,99.90
2022-08-17T07:18:33.183Z,99.90
2022-08-17T07:21:06.041Z,99.90
2022-08-17T07:23:40.171Z,99.90
2022-08-17T07:26:09.087Z,99.90
2022-08-17T07:28:37.108Z,99.90
2022-08-17T07:31:07.009Z,99.90
2022-08-17T07:33:36.873Z,99.90
2022-08-17T07:36:05.784Z,99.90
2022-08-17T07:38:35.634Z,99.90
2022-08-17T07:41:06.315Z,99.90
2022-08-17T07:43:36.500Z,99.90
2022-08-17T07:46:30.208Z,99.90
2022-08-17T07:48:59.363Z,95.80
2022-08-17T07:51:28.774Z,95.40
2022-08-17T07:54:13.104Z,96.30
2022-08-17T07:56:44.696Z,95.10
2022-08-17T07:59:15.665Z,92.60
2022-08-17T08:01:47.200Z,89.40
2022-08-17T08:04:58.846Z,86.70
2022-08-17T08:07:25.566Z,81.60
2022-08-17T08:10:01.481Z,82.60
2022-08-17T08:12:34.450Z,85.60
2022-08-17T08:15:04.733Z,86.20
2022-08-17T08:17:36.748Z,87.40
2022-08-17T08:20:51.555Z,85.70
2022-08-17T08:23:00.713Z,88.80
2022-08-17T08:25:33.979Z,88.30
2022-08-17T08:28:07.472Z,90.40
2022-08-17T08:30:37.406Z,89.70
2022-08-17T08:33:13.529Z,85.50
2022-08-17T08:35:44.563Z,85.30
2022-08-17T08:38:17.063Z,83.20
2022-08-17T08:40:51.453Z,83.80
2022-08-17T08:43:24.105Z,84.40
2022-08-17T08:45:56.697Z,85.40
2022-08-17T08:48:53.855Z,84.20
2022-08-17T08:51:32.600Z,85.80
2022-08-17T08:54:04.813Z,85.80
2022-08-17T08:56:38.317Z,85.20
2022-08-17T08:59:09.123Z,85.20
2022-08-17T09:01:38.521Z,87.30
2022-08-17T09:04:24.577Z,88.40
2022-08-17T09:06:58.047Z,89.30
2022-08-17T09:09:34.436Z,90.20
2022-08-17T09:12:06.497Z,90.50
2022-08-17T09:14:45.409Z,89.50
2022-08-17T09:17:18.523Z,90.70
2022-08-17T09:19:51.913Z,90.90
2022-08-17T09:22:31.412Z,90.70
2022-08-17T09:25:03.338Z,88.90
2022-08-17T09:27:33.227Z,86.60
2022-08-17T09:30:03.297Z,83.70
2022-08-17T09:32:35.243Z,84.20
2022-08-17T09:35:11.789Z,75.40
2022-08-17T09:37:44.229Z,73.70
2022-08-17T09:40:15.170Z,73.30
2022-08-17T09:42:48.193Z,72.40
2022-08-17T09:45:25.238Z,67.20
2022-08-17T09:47:57.131Z,66.30
2022-08-17T09:51:04.959Z,63.20
2022-08-17T09:53:17.109Z,59.80
2022-08-17T09:55:59.965Z,59.80
2022-08-17T09:58:33.793Z,59.20
2022-08-17T10:01:04.253Z,55.80
2022-08-17T10:03:50.941Z,53.80
2022-08-17T10:06:23.255Z,54.30
2022-08-17T10:08:57.510Z,53.60
2022-08-17T10:11:52.795Z,53.00
2022-08-17T10:14:37.269Z,51.50
2022-08-17T10:17:15.445Z,49.70
2022-08-17T10:19:47.851Z,48.70
2022-08-17T10:22:39.551Z,47.00
2022-08-17T10:25:37.617Z,45.90
2022-08-17T10:28:19.682Z,45.90
2022-08-17T10:30:51.762Z,45.00
2022-08-17T10:33:21.673Z,45.30
2022-08-17T10:35:53.232Z,44.90
2022-08-17T10:38:32.057Z,43.70
2022-08-17T10:41:02.604Z,43.10
2022-08-17T10:43:38.508Z,44.40
2022-08-17T10:46:26.470Z,42.80
2022-08-17T10:49:12.448Z,42.30
2022-08-17T10:51:41.961Z,44.40
2022-08-17T10:54:34.582Z,43.10
2022-08-17T10:57:03.140Z,44.30
2022-08-17T10:59:51.560Z,44.10
2022-08-17T11:02:26.194Z,45.20
2022-08-17T11:05:01.055Z,44.30
2022-08-17T11:07:38.212Z,45.20
2022-08-17T11:10:18.067Z,44.50
2022-08-17T11:12:51.668Z,45.20
2022-08-17T11:15:25.939Z,47.20
2022-08-17T11:18:04.888Z,45.80
2022-08-17T11:20:53.665Z,46.60
2022-08-17T11:23:27.428Z,44.70
2022-08-17T11:25:57.605Z,45.20
2022-08-17T11:28:26.541Z,46.60
2022-08-17T11:30:56.129Z,45.50
2022-08-17T11:33:42.470Z,45.30
2022-08-17T11:36:13.915Z,45.50
2022-08-17T11:38:46.210Z,46.00
2022-08-17T11:41:19.868Z,45.20
2022-08-17T11:44:10.520Z,46.50
2022-08-17T11:47:08.124Z,46.10
2022-08-17T11:50:00.714Z,48.40
2022-08-17T11:52:39.695Z,49.30
2022-08-17T11:55:34.019Z,51.90
2022-08-17T11:58:02.217Z,51.60
2022-08-17T12:00:49.862Z,50.70
2022-08-17T12:03:23.582Z,50.30
2022-08-17T12:05:53.565Z,51.30
2022-08-17T12:08:22.374Z,50.10
2022-08-17T12:10:54.299Z,50.60
2022-08-17T12:13:30.461Z,49.30
2022-08-17T12:16:07.445Z,47.60
2022-08-17T12:18:37.592Z,48.70
2022-08-17T12:21:13.388Z,50.00
2022-08-17T12:23:44.167Z,49.20
2022-08-17T12:26:15.265Z,49.60
2022-08-17T12:28:47.530Z,48.80
2022-08-17T12:31:19.054Z,48.40
2022-08-17T12:33:48.231Z,50.70
2022-08-17T12:36:17.128Z,49.30
2022-08-17T12:38:51.113Z,48.90
2022-08-17T12:41:30.673Z,50.10
2022-08-17T12:44:02.452Z,49.20
2022-08-17T12:46:33.726Z,49.50
2022-08-17T12:49:15.128Z,49.40
2022-08-17T12:51:44.058Z,49.70
2022-08-17T12:54:22.760Z,48.20
2022-08-17T12:56:50.867Z,48.00
2022-08-17T12:59:30.423Z,47.60
2022-08-17T13:01:59.181Z,47.30
2022-08-17T13:04:29.548Z,46.60
2022-08-17T13:06:59.635Z,46.80
2022-08-17T13:09:35.229Z,47.10
2022-08-17T13:12:05.082Z,47.00
2022-08-17T13:14:35.452Z,46.10
2022-08-17T13:17:08.361Z,46.60
2022-08-17T13:19:48.279Z,46.60
2022-08-17T13:22:16.386Z,46.70
2022-08-17T13:24:53.290Z,44.10
2022-08-17T13:27:22.045Z,45.00
2022-08-17T13:29:53.569Z,45.50
2022-08-17T13:32:23.196Z,46.10
2022-08-17T13:35:12.050Z,46.10
2022-08-17T13:38:02.414Z,46.20
2022-08-17T13:40:32.288Z,45.30
2022-08-17T13:43:03.256Z,45.00
2022-08-17T13:45:39.278Z,45.70
2022-08-17T13:48:08.793Z,47.80
2022-08-17T13:50:45.127Z,48.40
2022-08-17T13:53:23.292Z,48.50
2022-08-17T13:55:52.964Z,49.00
2022-08-17T13:58:22.383Z,47.30
2022-08-17T14:00:51.885Z,48.10
2022-08-17T14:03:20.269Z,46.90
2022-08-17T14:05:50.115Z,48.00
2022-08-17T14:08:19.538Z,47.80
2022-08-17T14:10:50.648Z,47.90
2022-08-17T14:13:18.730Z,47.40
2022-08-17T14:15:55.023Z,48.00
2022-08-17T14:18:35.699Z,49.00
2022-08-17T14:21:14.608Z,49.20
2022-08-17T14:23:48.999Z,49.30
2022-08-17T14:26:23.210Z,50.00
2022-08-17T14:28:54.579Z,50.80
2022-08-17T14:31:25.038Z,52.20
2022-08-17T14:33:54.782Z,52.30
2022-08-17T14:36:22.881Z,53.30
2022-08-17T14:38:51.063Z,53.20
2022-08-17T14:41:22.131Z,53.00
2022-08-17T14:43:50.670Z,53.40
2022-08-17T14:46:18.783Z,53.40
2022-08-17T14:48:47.121Z,53.20
2022-08-17T14:51:16.752Z,54.20
2022-08-17T14:53:45.933Z,55.00
2022-08-17T14:56:14.485Z,54.70
2022-08-17T14:58:43.336Z,54.80
2022-08-17T15:01:11.977Z,55.60
2022-08-17T15:03:40.994Z,55.80
2022-08-17T15:06:09.852Z,56.80
2022-08-17T15:08:39.819Z,57.40
2022-08-17T15:11:14.219Z,57.30
2022-08-17T15:13:52.845Z,57.40
2022-08-17T15:16:21.586Z,57.50
2022-08-17T15:18:50.393Z,58.60
2022-08-17T15:21:18.657Z,58.60
2022-08-17T15:23:48.138Z,59.90
2022-08-17T15:26:16.910Z,60.40
2022-08-17T15:28:44.927Z,61.10
2022-08-17T15:31:31.743Z,61.10
2022-08-17T15:34:00.168Z,61.30
2022-08-17T15:36:28.255Z,62.40
2022-08-17T15:38:58.772Z,63.20
2022-08-17T15:41:28.259Z,63.20
2022-08-17T15:43:56.548Z,63.40
2022-08-17T15:46:25.656Z,63.20
2022-08-17T15:48:54.965Z,64.90
2022-08-17T15:51:24.111Z,63.90
2022-08-17T15:53:53.536Z,64.00
2022-08-17T15:56:23.035Z,63.10
2022-08-17T15:58:51.190Z,63.20
2022-08-17T16:03:14.118Z,63.80
2022-08-17T16:04:26.919Z,63.00
2022-08-17T16:06:59.450Z,63.20
2022-08-17T16:09:27.646Z,63.60
2022-08-17T16:11:57.170Z,64.40
2022-08-17T16:14:33.988Z,64.70
2022-08-17T16:17:03.473Z,64.90
2022-08-17T16:19:32.529Z,65.20
2022-08-17T16:22:00.669Z,64.50
2022-08-17T16:24:28.725Z,64.10
2022-08-17T16:26:58.188Z,65.00
2022-08-17T16:29:26.253Z,65.50
2022-08-17T16:31:54.547Z,64.90
2022-08-17T16:34:22.771Z,64.80
2022-08-17T16:36:56.124Z,65.50
2022-08-17T16:39:25.614Z,65.50
2022-08-17T16:41:53.635Z,66.10
2022-08-17T16:44:23.315Z,66.80
2022-08-17T16:46:51.572Z,67.10
2022-08-17T16:49:35.921Z,68.70
2022-08-17T16:52:06.911Z,68.40
2022-08-17T16:54:35.974Z,68.90
2022-08-17T16:57:05.378Z,69.30
2022-08-17T16:59:40.831Z,68.00
2022-08-17T17:02:12.432Z,68.20
2022-08-17T17:04:43.828Z,68.50
2022-08-17T17:07:33.987Z,68.30
2022-08-17T17:10:04.846Z,68.30
2022-08-17T17:13:01.161Z,67.90
2022-08-17T17:15:24.802Z,68.30
2022-08-17T17:17:53.421Z,68.50
2022-08-17T17:20:23.873Z,68.90
2022-08-17T17:22:55.676Z,69.30
2022-08-17T17:25:27.927Z,69.50
2022-08-17T17:28:01.914Z,70.60
2022-08-17T17:30:35.036Z,70.50
2022-08-17T17:33:06.155Z,70.60
2022-08-17T17:35:36.175Z,71.00
2022-08-17T17:38:06.415Z,71.70
2022-08-17T17:40:42.989Z,72.30
2022-08-17T17:43:37.108Z,72.60
2022-08-17T17:46:27.870Z,73.10
2022-08-17T17:48:51.764Z,74.20
2022-08-17T17:52:06.859Z,73.40
2022-08-17T17:54:14.494Z,73.60
2022-08-17T17:56:47.305Z,74.50
2022-08-17T17:59:19.242Z,75.50
2022-08-17T18:01:52.260Z,75.30
2022-08-17T18:04:22.086Z,75.70
2022-08-17T18:06:55.661Z,77.20
2022-08-17T18:09:33.975Z,77.20
2022-08-17T18:12:12.153Z,77.90
2022-08-17T18:14:47.636Z,79.60
2022-08-17T18:17:18.158Z,79.50
2022-08-17T18:19:48.416Z,80.80
2022-08-17T18:22:18.303Z,81.90
2022-08-17T18:24:48.686Z,80.70
2022-08-17T18:27:21.727Z,83.00
2022-08-17T18:29:50.836Z,85.40
2022-08-17T18:32:28.070Z,86.70
2022-08-17T18:34:57.893Z,90.00
2022-08-17T18:37:36.772Z,90.60
2022-08-17T18:40:23.509Z,90.70
2022-08-17T18:42:58.203Z,92.00
2022-08-17T18:45:33.288Z,92.20
2022-08-17T18:48:03.145Z,92.60
2022-08-17T18:50:39.509Z,93.40
2022-08-17T18:53:21.136Z,93.00
2022-08-17T18:56:16.265Z,93.40
2022-08-17T18:58:47.576Z,95.20
2022-08-17T19:01:19.234Z,95.40
2022-08-17T19:03:49.045Z,96.60
2022-08-17T19:06:18.885Z,99.60
2022-08-17T19:08:46.899Z,98.10
2022-08-17T19:11:20.578Z,98.60
2022-08-17T19:13:54.061Z,99.80
2022-08-17T19:16:25.241Z,99.90
2022-08-17T19:18:58.788Z,99.90
2022-08-17T19:21:28.873Z,99.90
2022-08-17T19:23:59.442Z,99.90
2022-08-17T19:26:54.369Z,99.90
2022-08-17T19:29:22.499Z,99.90
2022-08-17T19:31:51.233Z,99.90
2022-08-17T19:34:33.370Z,99.90
2022-08-17T19:37:04.177Z,99.90
2022-08-17T19:39:38.256Z,99.90
2022-08-17T19:42:13.917Z,99.90
2022-08-17T19:44:48.600Z,99.90
2022-08-17T19:47:36.211Z,99.90
2022-08-17T19:50:13.404Z,99.90
2022-08-17T19:52:48.106Z,99.90
2022-08-17T19:55:20.846Z,99.90
2022-08-17T19:57:55.565Z,99.90
2022-08-17T20:00:23.943Z,99.90
2022-08-17T20:02:55.707Z,99.90
2022-08-17T20:05:26.951Z,99.90
2022-08-17T20:07:57.071Z,99.90
2022-08-17T20:10:29.094Z,99.90
2022-08-17T20:12:58.505Z,99.90
2022-08-17T20:15:28.384Z,99.90
2022-08-17T20:17:59.023Z,99.90
2022-08-17T20:20:32.096Z,99.90
2022-08-17T20:23:02.584Z,99.90
2022-08-17T20:25:34.815Z,99.90
2022-08-17T20:28:06.721Z,99.90
2022-08-17T20:30:37.817Z,99.90
2022-08-17T20:33:07.154Z,99.90
2022-08-17T20:35:38.025Z,99.90
2022-08-17T20:38:08.216Z,99.90
2022-08-17T20:40:38.319Z,99.90
2022-08-17T20:43:24.987Z,99.90
2022-08-17T20:46:07.931Z,99.90
2022-08-17T20:48:39.247Z,99.90
2022-08-17T20:51:18.437Z,99.90
2022-08-17T20:54:05.695Z,99.90
2022-08-17T20:56:56.252Z,99.90
2022-08-17T20:59:43.605Z,99.90
2022-08-17T21:02:19.833Z,99.90
2022-08-17T21:05:00.294Z,99.90
2022-08-17T21:07:33.093Z,99.90
2022-08-17T21:10:12.920Z,99.90
2022-08-17T21:12:42.737Z,99.90
2022-08-17T21:15:20.302Z,99.90
2022-08-17T21:17:51.382Z,99.90
2022-08-17T21:20:26.571Z,99.90
2022-08-17T21:23:03.564Z,99.90
2022-08-17T21:25:48.344Z,99.90
2022-08-17T21:28:20.369Z,99.90
2022-08-17T21:30:55.334Z,99.90
2022-08-17T21:33:27.570Z,99.90
2022-08-17T21:36:16.501Z,99.90
2022-08-17T21:38:57.589Z,99.90
2022-08-17T21:41:28.502Z,99.90
2022-08-17T21:44:01.798Z,99.90
2022-08-17T21:46:31.402Z,99.90
2022-08-17T21:49:04.972Z,99.90
2022-08-17T21:51:45.746Z,99.90
2022-08-17T21:54:24.064Z,99.90
2022-08-17T21:56:52.538Z,99.90
2022-08-17T21:59:26.154Z,99.90
2022-08-17T22:01:56.600Z,99.90
2022-08-17T22:04:29.284Z,99.90
2022-08-17T22:06:59.046Z,99.90
2022-08-17T22:09:29.764Z,99.90
2022-08-17T22:12:01.552Z,99.90
2022-08-17T22:14:53.211Z,99.90
2022-08-17T22:17:22.521Z,99.90
2022-08-17T22:19:51.855Z,99.90
2022-08-17T22:22:28.022Z,99.90
2022-08-17T22:24:59.288Z,99.90
2022-08-17T22:27:47.162Z,99.90
2022-08-17T22:30:18.146Z,99.90
2022-08-17T22:32:47.332Z,99.90
2022-08-17T22:35:20.506Z,99.90
2022-08-17T22:37:49.065Z,99.90
2022-08-17T22:40:29.013Z,99.90
2022-08-17T22:42:58.130Z,99.90
2022-08-17T22:45:27.054Z,99.90
2022-08-17T22:47:55.948Z,99.90
2022-08-17T22:50:25.131Z,99.90
2022-08-17T22:53:15.157Z,99.90
2022-08-17T22:56:08.850Z,99.90
2022-08-17T22:59:05.733Z,99.90
2022-08-17T23:01:35.558Z,99.90
2022-08-17T23:04:05.849Z,99.90
2022-08-17T23:06:35.161Z,99.90
2022-08-17T23:09:04.249Z,99.90
2022-08-17T23:11:49.231Z,99.90
2022-08-17T23:14:19.375Z,99.90
2022-08-17T23:16:48.773Z,99.90
2022-08-17T23:19:18.508Z,99.90
2022-08-17T23:21:46.772Z,99.90
2022-08-17T23:24:18.269Z,99.90
2022-08-17T23:26:47.981Z,99.90
2022-08-17T23:29:16.193Z,99.90
2022-08-17T23:31:44.329Z,99.90
2022-08-17T23:34:14.962Z,99.90
2022-08-17T23:36:49.872Z,99.90
2022-08-17T23:39:27.484Z,99.90
2022-08-17T23:41:58.328Z,99.90
2022-08-17T23:44:26.785Z,99.90
2022-08-17T23:46:55.117Z,99.90
2022-08-17T23:49:25.289Z,99.90
2022-08-17T23:51:53.712Z,99.90
2022-08-17T23:54:23.745Z,99.90
2022-08-17T23:56:51.881Z,99.90
2022-08-17T23:59:22.253Z,99.90
